createdAt,value
2018-06-27T00:00:44.515Z,6.58
2018-06-27T00:03:11.309Z,5.92
2018-06-27T00:05:38.095Z,5.87
2018-06-27T00:08:04.845Z,6.05
2018-06-27T00:10:31.613Z,6.70
2018-06-27T00:12:58.409Z,6.08
2018-06-27T00:15:25.093Z,6.65
2018-06-27T00:17:51.858Z,6.22
2018-06-27T00:20:18.569Z,6.03
2018-06-27T00:22:45.330Z,6.60
2018-06-27T00:25:12.062Z,5.78
2018-06-27T00:27:38.902Z,5.85
2018-06-27T00:30:05.658Z,6.17
2018-06-27T00:32:32.426Z,5.53
2018-06-27T00:34:59.249Z,6.22
2018-06-27T00:37:25.960Z,6.30
2018-06-27T00:39:52.742Z,6.30
2018-06-27T00:42:19.568Z,6.53
2018-06-27T00:44:46.286Z,6.28
2018-06-27T00:47:13.101Z,6.12
2018-06-27T00:49:39.833Z,5.83
2018-06-27T00:52:06.592Z,7.05
2018-06-27T00:54:33.353Z,5.87
2018-06-27T00:57:00.190Z,6.00
2018-06-27T00:59:27.143Z,6.53
2018-06-27T01:01:54.257Z,5.42
2018-06-27T01:04:20.919Z,5.58
2018-06-27T01:06:47.585Z,6.45
2018-06-27T01:09:14.288Z,5.95
2018-06-27T01:11:41.061Z,6.17
2018-06-27T01:14:07.701Z,5.47
2018-06-27T01:16:34.598Z,5.65
2018-06-27T01:19:01.281Z,5.87
2018-06-27T01:21:28.217Z,5.80
2018-06-27T01:23:55.054Z,5.47
2018-06-27T01:26:21.887Z,5.75
2018-06-27T01:28:48.691Z,4.95
2018-06-27T01:31:15.495Z,4.90
2018-06-27T01:33:42.346Z,4.90
2018-06-27T01:36:09.100Z,5.10
2018-06-27T01:38:35.854Z,4.75
2018-06-27T01:41:02.682Z,5.42
2018-06-27T01:43:29.366Z,5.17
2018-06-27T01:45:56.127Z,4.83
2018-06-27T01:48:22.923Z,4.65
2018-06-27T01:50:49.690Z,4.95
2018-06-27T01:53:16.426Z,4.62
2018-06-27T01:55:43.153Z,4.60
2018-06-27T01:58:09.971Z,4.47
2018-06-27T02:00:36.906Z,4.53
2018-06-27T02:03:03.717Z,4.40
2018-06-27T02:05:30.466Z,4.62
2018-06-27T02:07:57.349Z,5.10
2018-06-27T02:10:24.132Z,4.58
2018-06-27T02:12:50.871Z,4.40
2018-06-27T02:15:17.564Z,4.25
2018-06-27T02:17:44.342Z,4.08
2018-06-27T02:20:11.136Z,5.00
2018-06-27T02:22:37.930Z,4.47
2018-06-27T02:25:04.671Z,4.25
2018-06-27T02:27:31.527Z,4.50
2018-06-27T02:29:58.269Z,4.25
2018-06-27T02:32:25.018Z,3.92
2018-06-27T02:34:51.776Z,4.30
2018-06-27T02:37:18.563Z,4.60
2018-06-27T02:39:46.709Z,4.25
2018-06-27T02:42:13.466Z,4.80
2018-06-27T02:44:40.257Z,4.70
2018-06-27T02:47:06.975Z,4.42
2018-06-27T02:49:33.753Z,4.80
2018-06-27T02:52:00.534Z,4.15
2018-06-27T02:54:27.299Z,4.53
2018-06-27T02:56:54.247Z,3.80
2018-06-27T02:59:20.999Z,4.30
2018-06-27T03:01:47.737Z,4.05
2018-06-27T03:04:14.475Z,4.50
2018-06-27T03:06:41.239Z,4.70
2018-06-27T03:09:09.101Z,4.65
2018-06-27T03:11:35.933Z,4.45
2018-06-27T03:14:02.775Z,4.60
2018-06-27T03:16:29.497Z,4.80
2018-06-27T03:18:57.026Z,4.83
2018-06-27T03:21:24.403Z,4.70
2018-06-27T03:23:51.225Z,4.43
2018-06-27T03:26:17.975Z,4.78
2018-06-27T03:28:44.746Z,5.07
2018-06-27T03:31:11.745Z,4.50
2018-06-27T03:33:38.590Z,4.60
2018-06-27T03:36:05.337Z,5.33
2018-06-27T03:38:32.064Z,4.40
2018-06-27T03:40:58.909Z,4.40
2018-06-27T03:43:25.746Z,4.73
2018-06-27T03:45:52.651Z,4.58
2018-06-27T03:48:19.405Z,5.37
2018-06-27T03:50:46.214Z,4.75
2018-06-27T03:53:13.014Z,4.25
2018-06-27T03:55:39.810Z,5.08
2018-06-27T03:58:06.490Z,4.55
2018-06-27T04:00:33.226Z,4.37
2018-06-27T04:03:01.637Z,4.40
2018-06-27T04:05:28.330Z,4.80
2018-06-27T04:07:55.046Z,4.37
2018-06-27T04:10:21.831Z,4.90
2018-06-27T04:12:48.691Z,4.13
2018-06-27T04:15:15.414Z,4.90
2018-06-27T04:17:42.198Z,4.80
2018-06-27T04:20:09.022Z,4.63
2018-06-27T04:22:36.069Z,4.83
2018-06-27T04:25:02.813Z,4.70
2018-06-27T04:27:30.878Z,5.12
2018-06-27T04:29:57.920Z,4.97
2018-06-27T04:32:26.644Z,4.57
2018-06-27T04:34:54.872Z,5.10
2018-06-27T04:37:22.230Z,4.75
2018-06-27T04:39:49.038Z,4.70
2018-06-27T04:42:15.910Z,5.50
2018-06-27T04:44:42.681Z,4.37
2018-06-27T04:47:09.594Z,5.03
2018-06-27T04:49:36.448Z,4.50
2018-06-27T04:52:03.298Z,4.80
2018-06-27T04:54:30.149Z,4.35
2018-06-27T04:56:57.043Z,4.60
2018-06-27T04:59:23.935Z,4.20
2018-06-27T05:01:51.636Z,4.45
2018-06-27T05:04:18.472Z,4.60
2018-06-27T05:06:45.263Z,4.85
2018-06-27T05:09:11.963Z,4.62
2018-06-27T05:11:39.151Z,4.17
2018-06-27T05:14:06.173Z,4.53
2018-06-27T05:16:32.920Z,4.10
2018-06-27T05:18:59.766Z,4.60
2018-06-27T05:21:26.539Z,4.77
2018-06-27T05:23:53.337Z,4.33
2018-06-27T05:26:20.234Z,4.63
2018-06-27T05:28:47.039Z,4.73
2018-06-27T05:31:13.918Z,4.92
2018-06-27T05:33:40.646Z,4.53
2018-06-27T05:36:07.427Z,4.55
2018-06-27T05:38:34.172Z,4.57
2018-06-27T05:41:00.912Z,4.33
2018-06-27T05:43:30.526Z,4.60
2018-06-27T05:46:02.510Z,4.58
2018-06-27T05:48:33.457Z,4.67
2018-06-27T05:51:03.693Z,5.27
2018-06-27T05:53:32.310Z,4.30
2018-06-27T05:56:02.292Z,4.73
2018-06-27T05:58:32.635Z,5.28
2018-06-27T06:01:03.550Z,5.42
2018-06-27T06:03:35.114Z,5.47
2018-06-27T06:06:06.055Z,5.13
2018-06-27T06:08:34.000Z,5.10
2018-06-27T06:11:00.794Z,5.23
2018-06-27T06:13:27.589Z,4.93
2018-06-27T06:15:54.420Z,5.20
2018-06-27T06:18:21.224Z,4.83
2018-06-27T06:20:48.038Z,4.87
2018-06-27T06:23:14.804Z,5.27
2018-06-27T06:25:41.750Z,5.93
2018-06-27T06:28:08.658Z,5.33
2018-06-27T06:30:35.456Z,5.90
2018-06-27T06:33:02.148Z,5.05
2018-06-27T06:35:28.809Z,5.55
2018-06-27T06:37:55.593Z,5.37
2018-06-27T06:40:22.490Z,5.95
2018-06-27T06:42:49.328Z,5.87
2018-06-27T06:45:16.108Z,6.47
2018-06-27T06:47:42.869Z,5.50
2018-06-27T06:50:09.599Z,5.72
2018-06-27T06:52:36.442Z,6.33
2018-06-27T06:55:03.305Z,7.12
2018-06-27T06:57:30.031Z,6.37
2018-06-27T06:59:56.811Z,5.90
2018-06-27T07:02:23.533Z,6.37
2018-06-27T07:04:50.265Z,5.58
2018-06-27T07:07:16.985Z,6.00
2018-06-27T07:09:43.727Z,6.03
2018-06-27T07:12:10.445Z,5.83
2018-06-27T07:14:37.146Z,6.53
2018-06-27T07:17:03.833Z,5.35
2018-06-27T07:19:30.579Z,5.70
2018-06-27T07:21:57.249Z,6.28
2018-06-27T07:24:23.970Z,6.05
2018-06-27T07:26:50.711Z,6.33
2018-06-27T07:29:17.475Z,7.45
2018-06-27T07:31:44.177Z,6.67
2018-06-27T07:34:10.865Z,6.33
2018-06-27T07:36:37.693Z,7.12
2018-06-27T07:39:04.449Z,7.50
2018-06-27T07:41:31.210Z,7.62
2018-06-27T07:43:57.935Z,6.62
2018-06-27T07:46:24.739Z,6.62
2018-06-27T07:48:51.643Z,6.95
2018-06-27T07:51:18.475Z,7.22
2018-06-27T07:53:45.184Z,7.30
2018-06-27T07:56:11.890Z,7.22
2018-06-27T07:58:38.797Z,7.53
2018-06-27T08:01:05.535Z,7.65
2018-06-27T08:03:32.240Z,7.15
2018-06-27T08:05:59.055Z,7.67
2018-06-27T08:08:25.750Z,7.97
2018-06-27T08:10:52.423Z,6.70
2018-06-27T08:13:19.165Z,7.53
2018-06-27T08:15:49.027Z,7.78
2018-06-27T08:18:16.850Z,7.08
2018-06-27T08:20:43.582Z,6.85
2018-06-27T08:23:10.280Z,7.20
2018-06-27T08:25:41.498Z,7.03
2018-06-27T08:28:08.225Z,7.53
2018-06-27T08:30:45.134Z,6.55
2018-06-27T08:33:11.951Z,7.47
2018-06-27T08:35:38.842Z,7.05
2018-06-27T08:38:05.698Z,7.33
2018-06-27T08:40:32.423Z,7.40
2018-06-27T08:42:59.104Z,7.05
2018-06-27T08:45:25.851Z,7.17
2018-06-27T08:47:52.668Z,7.25
2018-06-27T08:50:19.542Z,7.28
2018-06-27T08:52:46.538Z,6.72
2018-06-27T08:55:13.230Z,7.40
2018-06-27T08:57:39.936Z,7.78
2018-06-27T09:00:06.682Z,7.90
2018-06-27T09:02:33.476Z,7.92
2018-06-27T09:05:00.233Z,7.45
2018-06-27T09:07:26.988Z,7.40
2018-06-27T09:09:53.682Z,8.38
2018-06-27T09:12:20.451Z,7.65
2018-06-27T09:14:47.172Z,8.15
2018-06-27T09:17:13.954Z,7.60
2018-06-27T09:19:40.696Z,8.80
2018-06-27T09:22:07.421Z,8.45
2018-06-27T09:24:34.130Z,8.05
2018-06-27T09:27:00.971Z,6.67
2018-06-27T09:29:27.779Z,7.53
2018-06-27T09:31:54.489Z,8.88
2018-06-27T09:34:21.365Z,8.13
2018-06-27T09:36:48.080Z,8.68
2018-06-27T09:39:14.797Z,8.38
2018-06-27T09:41:41.509Z,8.40
2018-06-27T09:44:08.337Z,7.62
2018-06-27T09:46:36.262Z,8.65
2018-06-27T09:49:02.991Z,9.15
2018-06-27T09:51:29.670Z,7.75
2018-06-27T09:53:56.362Z,8.65
2018-06-27T09:56:23.524Z,8.00
2018-06-27T09:58:50.308Z,7.75
2018-06-27T10:01:17.081Z,7.95
2018-06-27T10:03:43.949Z,8.90
2018-06-27T10:06:10.690Z,7.80
2018-06-27T10:08:37.418Z,8.03
2018-06-27T10:11:04.184Z,8.85
2018-06-27T10:13:30.954Z,8.83
2018-06-27T10:15:57.678Z,8.65
2018-06-27T10:18:24.450Z,8.23
2018-06-27T10:20:51.230Z,7.72
2018-06-27T10:23:17.968Z,8.40
2018-06-27T10:25:44.786Z,7.78
2018-06-27T10:28:11.488Z,8.08
2018-06-27T10:30:38.234Z,8.10
2018-06-27T10:33:05.174Z,9.28
2018-06-27T10:35:31.930Z,9.33
2018-06-27T10:37:58.749Z,8.53
2018-06-27T10:40:25.545Z,7.95
2018-06-27T10:42:52.257Z,8.48
2018-06-27T10:45:18.962Z,8.48
2018-06-27T10:47:45.664Z,9.78
2018-06-27T10:50:12.509Z,8.40
2018-06-27T10:52:39.288Z,8.88
2018-06-27T10:55:11.474Z,9.00
2018-06-27T10:57:38.213Z,8.23
2018-06-27T11:00:05.908Z,8.50
2018-06-27T11:02:32.649Z,9.45
2018-06-27T11:04:59.338Z,8.98
2018-06-27T11:07:26.144Z,8.13
2018-06-27T11:09:52.844Z,8.13
2018-06-27T11:12:19.527Z,7.92
2018-06-27T11:14:46.348Z,8.35
2018-06-27T11:17:13.033Z,6.92
2018-06-27T11:19:39.877Z,6.87
2018-06-27T11:22:06.633Z,7.47
2018-06-27T11:24:33.339Z,7.70
2018-06-27T11:27:00.152Z,6.25
2018-06-27T11:29:26.932Z,6.28
2018-06-27T11:31:53.691Z,6.20
2018-06-27T11:34:20.877Z,6.62
2018-06-27T11:36:47.609Z,6.70
2018-06-27T11:39:14.319Z,6.45
2018-06-27T11:41:41.962Z,5.75
2018-06-27T11:44:08.736Z,6.22
2018-06-27T11:46:36.095Z,5.25
2018-06-27T11:49:02.896Z,5.97
2018-06-27T11:51:29.569Z,5.80
2018-06-27T11:53:56.319Z,5.53
2018-06-27T11:56:23.199Z,5.22
2018-06-27T11:58:49.944Z,4.92
2018-06-27T12:01:16.751Z,4.97
2018-06-27T12:03:43.496Z,5.40
2018-06-27T12:06:10.267Z,4.35
2018-06-27T12:08:37.045Z,4.20
2018-06-27T12:11:03.838Z,4.10
2018-06-27T12:13:30.669Z,4.03
2018-06-27T12:15:57.385Z,4.00
2018-06-27T12:18:24.092Z,4.05
2018-06-27T12:20:50.894Z,3.33
2018-06-27T12:23:17.622Z,3.77
2018-06-27T12:25:44.336Z,3.77
2018-06-27T12:28:11.174Z,3.70
2018-06-27T12:30:37.894Z,3.72
2018-06-27T12:33:04.590Z,3.87
2018-06-27T12:35:31.341Z,3.40
2018-06-27T12:37:58.117Z,3.50
2018-06-27T12:40:24.985Z,3.83
2018-06-27T12:42:51.706Z,4.15
2018-06-27T12:45:18.364Z,3.52
2018-06-27T12:47:45.133Z,4.03
2018-06-27T12:50:11.945Z,4.10
2018-06-27T12:52:38.665Z,3.65
2018-06-27T12:55:07.044Z,3.33
2018-06-27T12:57:34.085Z,4.08
2018-06-27T13:00:00.792Z,3.95
2018-06-27T13:02:27.936Z,3.83
2018-06-27T13:04:54.700Z,4.10
2018-06-27T13:07:21.457Z,3.42
2018-06-27T13:09:48.148Z,3.75
2018-06-27T13:12:14.869Z,3.55
2018-06-27T13:14:41.559Z,3.37
2018-06-27T13:17:08.451Z,3.52
2018-06-27T13:19:35.135Z,3.65
2018-06-27T13:22:01.873Z,3.70
2018-06-27T13:24:28.517Z,3.42
2018-06-27T13:26:55.280Z,4.15
2018-06-27T13:29:22.011Z,4.30
2018-06-27T13:31:48.705Z,3.62
2018-06-27T13:34:15.484Z,3.72
2018-06-27T13:36:42.251Z,3.92
2018-06-27T13:39:09.643Z,4.05
2018-06-27T13:41:36.404Z,3.72
2018-06-27T13:44:03.173Z,3.58
2018-06-27T13:46:29.883Z,4.17
2018-06-27T13:48:56.574Z,3.72
2018-06-27T13:51:23.430Z,3.83
2018-06-27T13:53:50.209Z,4.00
2018-06-27T13:56:16.999Z,3.80
2018-06-27T13:58:43.743Z,4.30
2018-06-27T14:01:10.420Z,3.77
2018-06-27T14:03:37.173Z,4.50
2018-06-27T14:06:03.893Z,4.17
2018-06-27T14:08:30.660Z,4.22
2018-06-27T14:10:57.414Z,4.45
2018-06-27T14:13:24.146Z,3.95
2018-06-27T14:15:51.196Z,4.08
2018-06-27T14:18:18.010Z,4.87
2018-06-27T14:20:44.826Z,4.15
2018-06-27T14:23:11.628Z,4.17
2018-06-27T14:25:38.402Z,4.25
2018-06-27T14:28:05.168Z,4.03
2018-06-27T14:30:32.040Z,4.83
2018-06-27T14:32:58.889Z,4.95
2018-06-27T14:35:25.592Z,4.25
2018-06-27T14:37:52.414Z,5.25
2018-06-27T14:40:19.244Z,5.83
2018-06-27T14:42:46.114Z,4.53
2018-06-27T14:45:12.875Z,4.42
2018-06-27T14:47:39.697Z,4.67
2018-06-27T14:50:06.415Z,5.28
2018-06-27T14:52:33.177Z,4.87
2018-06-27T14:54:59.947Z,5.15
2018-06-27T14:57:26.696Z,4.95
2018-06-27T14:59:53.430Z,5.00
2018-06-27T15:02:20.245Z,5.35
2018-06-27T15:04:47.098Z,5.12
2018-06-27T15:07:13.948Z,4.58
2018-06-27T15:09:40.724Z,4.67
2018-06-27T15:12:07.593Z,5.58
2018-06-27T15:14:34.465Z,5.33
2018-06-27T15:17:01.347Z,5.00
2018-06-27T15:19:28.143Z,5.47
2018-06-27T15:21:55.140Z,5.75
2018-06-27T15:24:21.952Z,5.53
2018-06-27T15:26:48.747Z,5.08
2018-06-27T15:29:15.541Z,4.60
2018-06-27T15:31:42.341Z,5.37
2018-06-27T15:34:09.130Z,4.80
2018-06-27T15:36:36.007Z,5.72
2018-06-27T15:39:02.981Z,5.15
2018-06-27T15:41:29.769Z,5.50
2018-06-27T15:43:56.656Z,5.33
2018-06-27T15:46:23.522Z,5.60
2018-06-27T15:48:50.239Z,5.40
2018-06-27T15:51:17.046Z,5.35
2018-06-27T15:53:43.834Z,5.22
2018-06-27T15:56:10.663Z,5.58
2018-06-27T15:58:37.330Z,5.30
2018-06-27T16:01:05.458Z,5.70
2018-06-27T16:03:32.528Z,5.95
2018-06-27T16:05:59.288Z,5.60
2018-06-27T16:08:25.998Z,5.87
2018-06-27T16:10:52.696Z,5.28
2018-06-27T16:13:19.370Z,6.45
2018-06-27T16:15:46.098Z,5.53
2018-06-27T16:18:12.776Z,5.50
2018-06-27T16:20:39.454Z,5.10
2018-06-27T16:23:06.132Z,5.75
2018-06-27T16:25:32.810Z,5.08
2018-06-27T16:27:59.464Z,5.55
2018-06-27T16:30:26.154Z,5.67
2018-06-27T16:32:52.880Z,4.83
2018-06-27T16:35:19.628Z,5.05
2018-06-27T16:37:46.338Z,5.72
2018-06-27T16:40:13.078Z,5.78
2018-06-27T16:42:39.784Z,5.65
2018-06-27T16:45:06.484Z,6.15
2018-06-27T16:47:33.207Z,5.72
2018-06-27T16:49:59.911Z,5.05
2018-06-27T16:52:26.590Z,5.67
2018-06-27T16:54:53.327Z,5.72
2018-06-27T16:57:19.905Z,5.70
2018-06-27T16:59:46.653Z,5.87
2018-06-27T17:02:13.327Z,5.12
2018-06-27T17:04:40.116Z,6.45
2018-06-27T17:07:06.884Z,4.95
2018-06-27T17:09:33.607Z,4.70
2018-06-27T17:12:00.327Z,5.10
2018-06-27T17:14:27.074Z,5.08
2018-06-27T17:16:53.831Z,4.47
2018-06-27T17:19:20.723Z,4.60
2018-06-27T17:21:47.834Z,4.65
2018-06-27T17:24:15.084Z,4.40
2018-06-27T17:26:41.783Z,4.87
2018-06-27T17:29:13.082Z,4.92
2018-06-27T17:34:57.087Z,4.20
2018-06-27T17:50:24.808Z,4.80
2018-06-27T17:55:38.092Z,4.85
2018-06-27T17:58:10.462Z,4.12
2018-06-27T18:00:48.052Z,3.90
2018-06-27T18:03:27.497Z,3.92
2018-06-27T18:12:50.298Z,3.90
2018-06-27T18:15:44.578Z,4.12
2018-06-27T18:18:13.582Z,4.40
2018-06-27T18:20:44.259Z,4.67
2018-06-27T18:23:21.803Z,4.20
2018-06-27T18:35:19.323Z,5.20
2018-06-27T18:41:04.418Z,4.60
2018-06-27T18:52:26.050Z,4.37
2018-06-27T18:57:59.623Z,4.72
2018-06-27T19:03:38.979Z,4.42
2018-06-27T19:06:14.319Z,4.53
2018-06-27T19:08:48.029Z,4.33
2018-06-27T19:11:25.731Z,4.15
2018-06-27T19:22:40.459Z,4.37
2018-06-27T19:25:19.184Z,4.47
2018-06-27T19:27:51.691Z,4.05
2018-06-27T19:30:24.296Z,4.28
2018-06-27T19:32:53.846Z,4.22
2018-06-27T19:35:28.746Z,4.42
2018-06-27T19:38:02.462Z,4.42
2018-06-27T19:43:25.340Z,4.30
2018-06-27T20:02:27.274Z,4.05
2018-06-27T20:05:02.451Z,4.65
2018-06-27T20:10:22.491Z,4.03
2018-06-27T20:16:10.207Z,4.47
2018-06-27T20:25:53.900Z,4.78
2018-06-27T20:28:33.537Z,4.50
2018-06-27T20:39:21.929Z,3.25
2018-06-27T20:53:26.545Z,4.83
2018-06-27T21:05:44.452Z,4.55
2018-06-27T21:16:24.354Z,4.72
2018-06-27T21:21:51.121Z,4.75
2018-06-27T21:28:19.420Z,4.42
2018-06-27T21:30:47.333Z,4.80
2018-06-27T21:45:33.440Z,5.83
2018-06-27T21:48:09.580Z,4.75
2018-06-27T21:53:30.413Z,4.92
2018-06-27T21:56:04.333Z,4.80
2018-06-27T21:58:50.680Z,4.28
2018-06-27T22:04:10.664Z,5.05
2018-06-27T22:07:00.239Z,5.50
2018-06-27T22:12:28.748Z,5.20
2018-06-27T22:23:55.093Z,5.05
2018-06-27T22:26:32.104Z,6.05
2018-06-27T22:29:11.625Z,6.05
2018-06-27T22:37:47.825Z,5.50
2018-06-27T22:40:25.524Z,5.17
2018-06-27T22:46:13.208Z,5.97
2018-06-27T22:49:33.596Z,5.60
2018-06-27T22:52:28.271Z,5.50
2018-06-27T22:55:36.726Z,5.58
2018-06-27T22:58:17.440Z,6.12
2018-06-27T23:04:05.626Z,6.12
2018-06-27T23:06:36.190Z,6.05
2018-06-27T23:09:22.184Z,5.60
2018-06-27T23:14:03.272Z,6.00
2018-06-27T23:16:53.056Z,5.70
